ID Time Temp Humidity Light PM2.5 PM10 Voltage Extra Firmware Position Fcnt TTN version Gateways Distance RSSI LSNR Radiosettings
2026-05-09 10:00:03 12.75°C 95.25% 7 μg/m³ 7 μg/m³ 3.41V v255 52.0664 / 5.13089 477 ttn.v3 0.111km -85 11.8 868.1MHz, SF9BW125, 4/5CR
0.881km -107 -13.2 868.1MHz, SF9BW125, 4/5CR
2026-05-09 09:43:34 12.3125°C 98.875% 7 μg/m³ 7 μg/m³ 3.41V v255 52.0664 / 5.13089 476 ttn.v3 0.111km -85 12 867.9MHz, SF9BW125, 4/5CR
- -117 -1.5 867.9MHz, SF9BW125, 4/5CR
3.54km -111 -8.25 867.9MHz, SF9BW125, 4/5CR
0.881km -109 -12.2 867.9MHz, SF9BW125, 4/5CR
2026-05-09 09:27:05 11.5°C 104.375% 11 μg/m³ 11 μg/m³ 3.41V v255 52.0664 / 5.13089 475 ttn.v3 0.111km -89 9.2 868.5MHz, SF9BW125, 4/5CR
0.881km -104 -7.2 868.5MHz, SF9BW125, 4/5CR
2026-05-09 09:10:36 10.75°C 115.875% 16 μg/m³ 17 μg/m³ 3.41V v255 52.0664 / 5.13089 474 ttn.v3 0.111km -87 11.5 867.7MHz, SF9BW125, 4/5CR
2026-05-09 08:54:06 10.125°C 118.938% 20 μg/m³ 21 μg/m³ 3.41V v255 52.0664 / 5.13089 473 ttn.v3 0.111km -84 10.5 868.3MHz, SF9BW125, 4/5CR
- -120 -8.75 868.3MHz, SF9BW125, 4/5CR
2026-05-09 08:37:37 9.4375°C 118.938% 21 μg/m³ 23 μg/m³ 3.39V v255 52.0664 / 5.13089 472 ttn.v3 0.111km -83 8.5 867.5MHz, SF9BW125, 4/5CR
2026-05-09 08:21:08 9°C 118.938% 23 μg/m³ 24 μg/m³ 3.39V v255 52.0664 / 5.13089 471 ttn.v3 0.111km -89 11.8 868.1MHz, SF9BW125, 4/5CR
- -117 -5.5 868.1MHz, SF9BW125, 4/5CR
0.881km -107 -10.8 868.1MHz, SF9BW125, 4/5CR
2026-05-09 08:04:38 8.5°C 118.938% 25 μg/m³ 26 μg/m³ 3.39V v255 52.0664 / 5.13089 470 ttn.v3 0.111km -89 12.8 867.3MHz, SF9BW125, 4/5CR
0.881km -106 -10.5 867.3MHz, SF9BW125, 4/5CR
2026-05-09 07:48:08 8.1875°C 118.938% 23 μg/m³ 24 μg/m³ 3.39V v255 52.0664 / 5.13089 469 ttn.v3 0.111km -85 9.5 868.5MHz, SF9BW125, 4/5CR
2026-05-09 07:31:39 7.875°C 118.938% 23 μg/m³ 24 μg/m³ 3.39V v255 52.0664 / 5.13089 468 ttn.v3 0.111km -84 11.8 867.1MHz, SF9BW125, 4/5CR
3.54km -108 -9.75 867.1MHz, SF9BW125, 4/5CR
2026-05-09 07:15:09 7.625°C 118.938% 21 μg/m³ 21 μg/m³ 3.39V v255 52.0664 / 5.13089 467 ttn.v3 0.111km -85 11.2 868.3MHz, SF9BW125, 4/5CR
2026-05-09 06:58:39 7.4375°C 118.938% 23 μg/m³ 24 μg/m³ 3.39V v255 52.0664 / 5.13089 466 ttn.v3 0.111km -84 10.8 867.9MHz, SF9BW125, 4/5CR
- -119 -2 867.9MHz, SF9BW125, 4/5CR
0.881km -106 -12 867.9MHz, SF9BW125, 4/5CR
2026-05-09 06:42:10 7.1875°C 118.938% 19 μg/m³ 19 μg/m³ 3.39V v255 52.0664 / 5.13089 465 ttn.v3 0.111km -85 11 868.1MHz, SF9BW125, 4/5CR
- -117 -1.75 868.1MHz, SF9BW125, 4/5CR
0.881km -106 -11 868.1MHz, SF9BW125, 4/5CR
2026-05-09 06:25:40 7.125°C 118.938% 19 μg/m³ 19 μg/m³ 3.39V v255 52.0664 / 5.13089 464 ttn.v3 0.111km -87 13.2 867.7MHz, SF9BW125, 4/5CR
- -119 -4.25 867.7MHz, SF9BW125, 4/5CR
2026-05-09 06:09:11 7.0625°C 118.938% 17 μg/m³ 19 μg/m³ 3.39V v255 52.0664 / 5.13089 463 ttn.v3 0.111km -87 9.2 868.5MHz, SF9BW125, 4/5CR
- -128 -13.75 868.5MHz, SF9BW125, 4/5CR
2026-05-09 05:52:41 7.0625°C 118.938% 14 μg/m³ 15 μg/m³ 3.39V v255 52.0664 / 5.13089 462 ttn.v3 0.111km -85 9.2 867.5MHz, SF9BW125, 4/5CR
2026-05-09 05:36:11 7.3125°C 118.938% 13 μg/m³ 13 μg/m³ 3.39V v255 52.0664 / 5.13089 461 ttn.v3 0.111km -89 12.2 868.3MHz, SF9BW125, 4/5CR
2026-05-09 05:19:42 7.375°C 118.938% 15 μg/m³ 16 μg/m³ 3.39V v255 52.0664 / 5.13089 460 ttn.v3 0.111km -84 11 867.3MHz, SF9BW125, 4/5CR
2026-05-09 05:03:12 7.4375°C 118.938% 17 μg/m³ 18 μg/m³ 3.39V v255 52.0664 / 5.13089 459 ttn.v3 0.111km -89 11.8 868.1MHz, SF9BW125, 4/5CR
- -117 -3 868.1MHz, SF9BW125, 4/5CR
2026-05-09 04:46:42 7.5625°C 118.938% 16 μg/m³ 16 μg/m³ 3.39V v255 52.0664 / 5.13089 458 ttn.v3 0.111km -89 13 867.1MHz, SF9BW125, 4/5CR
- -120 -3.5 867.1MHz, SF9BW125, 4/5CR
2026-05-09 04:30:13 7.625°C 118.938% 17 μg/m³ 18 μg/m³ 3.39V v255 52.0664 / 5.13089 457 ttn.v3 0.111km -87 9.2 868.5MHz, SF9BW125, 4/5CR
0.881km -105 -8.2 868.5MHz, SF9BW125, 4/5CR
2026-05-09 04:13:43 7.6875°C 118.938% 11 μg/m³ 11 μg/m³ 3.39V v255 52.0664 / 5.13089 456 ttn.v3 0.111km -89 13 867.9MHz, SF9BW125, 4/5CR
- -118 -3.75 867.9MHz, SF9BW125, 4/5CR
- -125 -12.5 867.9MHz, SF9BW125, 4/5CR
0.881km -106 -13.5 867.9MHz, SF9BW125, 4/5CR
2026-05-09 03:57:14 7.8125°C 118.938% 12 μg/m³ 12 μg/m³ 3.39V v255 52.0664 / 5.13089 455 ttn.v3 0.111km -85 11 868.3MHz, SF9BW125, 4/5CR
- -118 -7.75 868.3MHz, SF9BW125, 4/5CR
2026-05-09 03:40:44 7.875°C 118.938% 15 μg/m³ 16 μg/m³ 3.39V v255 52.0664 / 5.13089 454 ttn.v3 0.111km -85 10.8 867.7MHz, SF9BW125, 4/5CR
- -120 -4 867.7MHz, SF9BW125, 4/5CR
2026-05-09 03:24:14 8.125°C 118.938% 10 μg/m³ 10 μg/m³ 3.39V v255 52.0664 / 5.13089 453 ttn.v3 0.111km -85 12 868.1MHz, SF9BW125, 4/5CR
- -117 -4.25 868.1MHz, SF9BW125, 4/5CR
0.881km -106 -10.8 868.1MHz, SF9BW125, 4/5CR
2026-05-09 03:07:45 8.4375°C 118.938% 14 μg/m³ 15 μg/m³ 3.39V v255 52.0664 / 5.13089 452 ttn.v3 0.111km -85 9 867.5MHz, SF9BW125, 4/5CR
2026-05-09 02:51:15 8.5°C 118.5% 10 μg/m³ 10 μg/m³ 3.39V v255 52.0664 / 5.13089 451 ttn.v3 0.111km -89 9 868.5MHz, SF9BW125, 4/5CR
0.881km -105 -9.2 868.5MHz, SF9BW125, 4/5CR
2026-05-09 02:34:46 8.625°C 118.438% 12 μg/m³ 12 μg/m³ 3.39V v255 52.0664 / 5.13089 450 ttn.v3 0.111km -87 13.2 867.3MHz, SF9BW125, 4/5CR
- -127 -11.75 867.3MHz, SF9BW125, 4/5CR
2026-05-09 02:18:16 8.625°C 116.312% 12 μg/m³ 14 μg/m³ 3.39V v255 52.0664 / 5.13089 449 ttn.v3 0.111km -85 7 868.3MHz, SF9BW125, 4/5CR
2026-05-09 02:01:47 9.125°C 115.5% 14 μg/m³ 15 μg/m³ 3.39V v255 52.0664 / 5.13089 448 ttn.v3 0.111km -89 12.8 867.1MHz, SF9BW125, 4/5CR
2026-05-09 01:45:17 9.1875°C 115.375% 10 μg/m³ 11 μg/m³ 3.39V v255 52.0664 / 5.13089 447 ttn.v3 0.111km -87 11.5 868.1MHz, SF9BW125, 4/5CR
- -117 -1.75 868.1MHz, SF9BW125, 4/5CR
0.881km -106 -10.8 868.1MHz, SF9BW125, 4/5CR
2026-05-09 01:28:48 9.4375°C 113.812% 9 μg/m³ 9 μg/m³ 3.39V v255 52.0664 / 5.13089 446 ttn.v3 0.111km -89 12.5 867.9MHz, SF9BW125, 4/5CR
- -118 -2 867.9MHz, SF9BW125, 4/5CR
- -124 -9.25 867.9MHz, SF9BW125, 4/5CR
2026-05-09 01:12:19 9.6875°C 112.938% 10 μg/m³ 10 μg/m³ 3.39V v255 52.0664 / 5.13089 445 ttn.v3 0.111km -89 8.8 868.5MHz, SF9BW125, 4/5CR
0.881km -103 -9 868.5MHz, SF9BW125, 4/5CR
2026-05-09 00:55:49 9.6875°C 113.062% 9 μg/m³ 9 μg/m³ 3.39V v255 52.0664 / 5.13089 444 ttn.v3 0.111km -84 11.5 867.7MHz, SF9BW125, 4/5CR
2026-05-09 00:39:20 9.9375°C 112% 7 μg/m³ 7 μg/m³ 3.39V v255 52.0664 / 5.13089 443 ttn.v3 0.111km -89 11.5 868.3MHz, SF9BW125, 4/5CR
- -119 -7.25 868.3MHz, SF9BW125, 4/5CR
2026-05-09 00:22:50 9.75°C 114.312% 9 μg/m³ 10 μg/m³ 3.41V v255 52.0664 / 5.13089 442 ttn.v3 0.111km -82 9.5 867.5MHz, SF9BW125, 4/5CR
2026-05-09 00:06:21 10.125°C 113.125% 8 μg/m³ 9 μg/m³ 3.39V v255 52.0664 / 5.13089 441 ttn.v3 0.111km -84 10.8 868.1MHz, SF9BW125, 4/5CR
- -116 -0.75 868.1MHz, SF9BW125, 4/5CR
2026-05-08 23:49:52 10.375°C 112.375% 9 μg/m³ 9 μg/m³ 3.41V v255 52.0664 / 5.13089 440 ttn.v3 0.111km -87 12.8 867.3MHz, SF9BW125, 4/5CR
2026-05-08 23:33:22 10.75°C 107.438% 6 μg/m³ 6 μg/m³ 3.41V v255 52.0664 / 5.13089 439 ttn.v3 0.111km -85 9 868.5MHz, SF9BW125, 4/5CR
0.881km -103 -9.2 868.5MHz, SF9BW125, 4/5CR
2026-05-08 23:16:53 10.8125°C 110.375% 9 μg/m³ 9 μg/m³ 3.39V v255 52.0664 / 5.13089 438 ttn.v3 0.111km -89 12.8 867.1MHz, SF9BW125, 4/5CR
- -118 -1.25 867.1MHz, SF9BW125, 4/5CR
2026-05-08 23:00:24 11.375°C 105.438% 11 μg/m³ 11 μg/m³ 3.41V v255 52.0664 / 5.13089 437 ttn.v3 0.111km -89 11.8 868.3MHz, SF9BW125, 4/5CR
- -118 -10.25 868.3MHz, SF9BW125, 4/5CR
0.881km -103 -11.5 868.3MHz, SF9BW125, 4/5CR
2026-05-08 22:43:55 11.75°C 104.875% 11 μg/m³ 12 μg/m³ 3.41V v255 52.0664 / 5.13089 436 ttn.v3 0.111km -89 13 867.9MHz, SF9BW125, 4/5CR
- -118 -5.75 867.9MHz, SF9BW125, 4/5CR
0.881km -106 -12.8 867.9MHz, SF9BW125, 4/5CR
2026-05-08 22:27:26 12.1875°C 98.25% 12 μg/m³ 12 μg/m³ 3.41V v255 52.0664 / 5.13089 435 ttn.v3 0.111km -85 11 868.1MHz, SF9BW125, 4/5CR
- -118 -3.25 868.1MHz, SF9BW125, 4/5CR
0.881km -111 -11 868.1MHz, SF9BW125, 4/5CR
2026-05-08 22:10:57 12.4375°C 97.75% 6 μg/m³ 6 μg/m³ 3.41V v255 52.0664 / 5.13089 434 ttn.v3 0.111km -87 12.8 867.7MHz, SF9BW125, 4/5CR
2026-05-08 21:54:28 12.5625°C 100.625% 5 μg/m³ 5 μg/m³ 3.41V v255 52.0664 / 5.13089 433 ttn.v3 0.111km -87 9.2 868.5MHz, SF9BW125, 4/5CR
0.881km -104 -12.8 868.5MHz, SF9BW125, 4/5CR
2026-05-08 21:37:59 13.1875°C 96.8125% 6 μg/m³ 6 μg/m³ 3.41V v255 52.0664 / 5.13089 432 ttn.v3 0.111km -87 8.5 867.5MHz, SF9BW125, 4/5CR
2026-05-08 21:21:30 13.375°C 97.0625% 3 μg/m³ 3 μg/m³ 3.41V v255 52.0664 / 5.13089 431 ttn.v3 0.111km -85 11.2 868.3MHz, SF9BW125, 4/5CR
- -118 -7.25 868.3MHz, SF9BW125, 4/5CR
2026-05-08 21:05:01 13.8125°C 96.8125% 3 μg/m³ 3 μg/m³ 3.41V v255 52.0664 / 5.13089 430 ttn.v3 0.111km -87 12.8 867.3MHz, SF9BW125, 4/5CR
2026-05-08 20:48:32 14.9375°C 91.1875% 5 μg/m³ 5 μg/m³ 3.41V v255 52.0664 / 5.13089 429 ttn.v3 0.111km -87 11.8 868.1MHz, SF9BW125, 4/5CR
- -119 -4 868.1MHz, SF9BW125, 4/5CR
0.881km -106 -10.5 868.1MHz, SF9BW125, 4/5CR
2026-05-08 20:32:04 15.6875°C 89% 4 μg/m³ 4 μg/m³ 3.41V v255 52.0664 / 5.13089 428 ttn.v3 0.111km -85 12.5 867.1MHz, SF9BW125, 4/5CR
- -118 -2.25 867.1MHz, SF9BW125, 4/5CR
2026-05-08 20:15:35 16.3125°C 78.3125% 4 μg/m³ 5 μg/m³ 3.41V v255 52.0664 / 5.13089 427 ttn.v3 0.111km -87 9.2 868.5MHz, SF9BW125, 4/5CR
0.881km -105 -11.8 868.5MHz, SF9BW125, 4/5CR
2026-05-08 19:59:06 16.5625°C 67.4375% 4 μg/m³ 5 μg/m³ 3.41V v255 52.0664 / 5.13089 426 ttn.v3 0.111km -87 12 867.9MHz, SF9BW125, 4/5CR
- -119 -3.75 867.9MHz, SF9BW125, 4/5CR
2026-05-08 19:42:37 16.875°C 66.5625% 4 μg/m³ 4 μg/m³ 3.41V v255 52.0664 / 5.13089 425 ttn.v3 0.111km -87 11.2 868.3MHz, SF9BW125, 4/5CR
2026-05-08 19:26:09 16.8125°C 64.875% 6 μg/m³ 6 μg/m³ 3.41V v255 52.0664 / 5.13089 424 ttn.v3 0.111km -87 12.5 867.7MHz, SF9BW125, 4/5CR
- -119 -3.75 867.7MHz, SF9BW125, 4/5CR
3.54km -109 -8.75 867.7MHz, SF9BW125, 4/5CR
- -124 -10 867.7MHz, SF9BW125, 4/5CR
2026-05-08 19:09:40 17.25°C 62.625% 6 μg/m³ 6 μg/m³ 3.41V v255 52.0664 / 5.13089 423 ttn.v3 0.111km -91 12.2 868.1MHz, SF9BW125, 4/5CR
- -118 -3.75 868.1MHz, SF9BW125, 4/5CR
2026-05-08 18:53:11 17°C 62.3125% 5 μg/m³ 6 μg/m³ 3.41V v255 52.0664 / 5.13089 422 ttn.v3 0.111km -87 9.5 867.5MHz, SF9BW125, 4/5CR
2026-05-08 18:36:43 16.9375°C 76.6875% 7 μg/m³ 9 μg/m³ 3.41V v255 52.0664 / 5.13089 421 ttn.v3 0.111km -91 9 868.5MHz, SF9BW125, 4/5CR
0.881km -106 -10.2 868.5MHz, SF9BW125, 4/5CR
2026-05-08 18:20:14 -26°C 71.375% 4 μg/m³ 4 μg/m³ 3.41V v255 52.0664 / 5.13089 420 ttn.v3 0.111km -87 12.8 867.3MHz, SF9BW125, 4/5CR
2026-05-08 18:03:45 16.5625°C 81.6875% 4 μg/m³ 4 μg/m³ 3.41V v255 52.0664 / 5.13089 419 ttn.v3 0.111km -85 10.5 868.3MHz, SF9BW125, 4/5CR
- -119 -7.5 868.3MHz, SF9BW125, 4/5CR
0.881km -105 -11.2 868.3MHz, SF9BW125, 4/5CR
2026-05-08 17:47:17 16.0625°C 71.1875% 5 μg/m³ 5 μg/m³ 3.41V v255 52.0664 / 5.13089 418 ttn.v3 0.111km -89 12.8 867.1MHz, SF9BW125, 4/5CR
- -119 -2.5 867.1MHz, SF9BW125, 4/5CR
2026-05-08 17:30:48 16.125°C 74.25% 6 μg/m³ 6 μg/m³ 3.41V v255 52.0664 / 5.13089 417 ttn.v3 0.111km -89 12.2 868.1MHz, SF9BW125, 4/5CR
- -118 -3 868.1MHz, SF9BW125, 4/5CR
0.881km -109 -9 868.1MHz, SF9BW125, 4/5CR
2026-05-08 17:14:19 16.375°C 68.25% 6 μg/m³ 6 μg/m³ 3.41V v255 52.0664 / 5.13089 416 ttn.v3 0.111km -87 12.2 867.9MHz, SF9BW125, 4/5CR
- -119 -3.25 867.9MHz, SF9BW125, 4/5CR
0.881km -107 -14.8 867.9MHz, SF9BW125, 4/5CR
2026-05-08 16:57:50 16.6875°C 72.9375% 6 μg/m³ 6 μg/m³ 3.41V v255 52.0664 / 5.13089 415 ttn.v3 0.111km -91 8.5 868.5MHz, SF9BW125, 4/5CR
- -126 -11.75 868.5MHz, SF9BW125, 4/5CR
2026-05-08 16:41:22 16.9375°C 65.1875% 6 μg/m³ 8 μg/m³ 3.41V v255 52.0664 / 5.13089 414 ttn.v3 0.111km -87 12.5 867.7MHz, SF9BW125, 4/5CR
- -120 -4.25 867.7MHz, SF9BW125, 4/5CR
2026-05-08 16:24:53 17.625°C 58.8125% 5 μg/m³ 5 μg/m³ 3.41V v255 52.0664 / 5.13089 413 ttn.v3 0.111km -89 11.5 868.3MHz, SF9BW125, 4/5CR
0.881km -107 -11.2 868.3MHz, SF9BW125, 4/5CR
- -118 -11.75 868.3MHz, SF9BW125, 4/5CR
2026-05-08 16:08:24 17.375°C 64.5625% 7 μg/m³ 7 μg/m³ 3.41V v255 52.0664 / 5.13089 412 ttn.v3 0.111km -89 9 867.5MHz, SF9BW125, 4/5CR
2026-05-08 15:51:56 16.9375°C 67.75% 7 μg/m³ 7 μg/m³ 3.41V v255 52.0664 / 5.13089 411 ttn.v3 0.111km -91 12.2 868.1MHz, SF9BW125, 4/5CR
- -120 -7.5 868.1MHz, SF9BW125, 4/5CR
0.881km -109 -9 868.1MHz, SF9BW125, 4/5CR
2026-05-08 15:35:27 16.4375°C 75.9375% 9 μg/m³ 10 μg/m³ 3.41V v255 52.0664 / 5.13089 410 ttn.v3 0.111km -89 13 867.3MHz, SF9BW125, 4/5CR
- -124 -7 867.3MHz, SF9BW125, 4/5CR
- -120 -7.5 867.3MHz, SF9BW125, 4/5CR
2026-05-08 15:18:58 16.4375°C 82.25% 10 μg/m³ 12 μg/m³ 3.41V v255 52.0664 / 5.13089 409 ttn.v3 0.111km -88 8 868.5MHz, SF9BW125, 4/5CR
- -126 -11.25 868.5MHz, SF9BW125, 4/5CR
0.881km -107 -11.8 868.5MHz, SF9BW125, 4/5CR
2026-05-08 15:02:29 16.4375°C 74.625% 9 μg/m³ 9 μg/m³ 3.41V v255 52.0664 / 5.13089 408 ttn.v3 0.111km -87 11.8 867.1MHz, SF9BW125, 4/5CR
2026-05-08 14:46:01 16.5°C 74.75% 7 μg/m³ 7 μg/m³ 3.41V v255 52.0664 / 5.13089 407 ttn.v3 0.111km -88 10 868.3MHz, SF9BW125, 4/5CR
0.881km -106 -12 868.3MHz, SF9BW125, 4/5CR
2026-05-08 14:29:32 16.8125°C 74.8125% 10 μg/m³ 11 μg/m³ 3.41V v255 52.0664 / 5.13089 406 ttn.v3 0.111km -88 11.2 867.9MHz, SF9BW125, 4/5CR
- -119 -10.5 867.9MHz, SF9BW125, 4/5CR
0.881km -107 -12.5 867.9MHz, SF9BW125, 4/5CR
2026-05-08 14:13:03 17.125°C 76.9375% 6 μg/m³ 7 μg/m³ 3.41V v255 52.0664 / 5.13089 405 ttn.v3 0.111km -87 11.5 868.1MHz, SF9BW125, 4/5CR
- -120 -5 868.1MHz, SF9BW125, 4/5CR
0.881km -107 -12.5 868.1MHz, SF9BW125, 4/5CR
2026-05-08 13:56:34 17.3125°C 71.75% 16 μg/m³ 20 μg/m³ 3.41V v255 52.0664 / 5.13089 404 ttn.v3 0.111km -89 12.8 867.7MHz, SF9BW125, 4/5CR
2026-05-08 13:40:06 18.3125°C 72.5625% 8 μg/m³ 8 μg/m³ 3.41V v255 52.0664 / 5.13089 403 ttn.v3 0.111km -90 8.2 868.5MHz, SF9BW125, 4/5CR
2026-05-08 13:23:37 19.25°C 63.9375% 10 μg/m³ 11 μg/m³ 3.41V v255 52.0664 / 5.13089 402 ttn.v3 0.111km -84 10 867.5MHz, SF9BW125, 4/5CR
2026-05-08 13:07:08 19.8125°C 65.25% 11 μg/m³ 11 μg/m³ 3.41V v255 52.0664 / 5.13089 401 ttn.v3 0.111km -89 11 868.3MHz, SF9BW125, 4/5CR
- -119 -8.25 868.3MHz, SF9BW125, 4/5CR
0.881km -107 -9.2 868.3MHz, SF9BW125, 4/5CR
2026-05-08 12:50:40 18.9375°C 72.5625% 8 μg/m³ 8 μg/m³ 3.41V v255 52.0664 / 5.13089 400 ttn.v3 0.111km -87 12.5 867.3MHz, SF9BW125, 4/5CR
- -124 -9.75 867.3MHz, SF9BW125, 4/5CR
2026-05-08 12:34:11 17.4375°C 74.875% 14 μg/m³ 14 μg/m³ 3.41V v255 52.0664 / 5.13089 399 ttn.v3 0.111km -89 12.2 868.1MHz, SF9BW125, 4/5CR
- -118 -5 868.1MHz, SF9BW125, 4/5CR
0.881km -106 -11.5 868.1MHz, SF9BW125, 4/5CR
2026-05-08 12:17:42 16.8125°C 81.4375% 14 μg/m³ 15 μg/m³ 3.41V v255 52.0664 / 5.13089 398 ttn.v3 0.111km -85 11.8 867.1MHz, SF9BW125, 4/5CR
- -120 -5 867.1MHz, SF9BW125, 4/5CR
2026-05-08 12:01:13 16.625°C 82.5% 10 μg/m³ 10 μg/m³ 3.41V v255 52.0664 / 5.13089 397 ttn.v3 0.111km -89 9.2 868.5MHz, SF9BW125, 4/5CR
0.881km -106 -11 868.5MHz, SF9BW125, 4/5CR
2026-05-08 11:44:45 16.25°C 84.625% 9 μg/m³ 9 μg/m³ 3.41V v255 52.0664 / 5.13089 396 ttn.v3 0.111km -89 12.2 867.9MHz, SF9BW125, 4/5CR
- -119 -3 867.9MHz, SF9BW125, 4/5CR
0.881km -107 -13.2 867.9MHz, SF9BW125, 4/5CR
2026-05-08 11:28:16 16.25°C 79.625% 8 μg/m³ 8 μg/m³ 3.41V v255 52.0664 / 5.13089 395 ttn.v3 0.111km -89 12 868.3MHz, SF9BW125, 4/5CR
0.881km -103 -9 868.3MHz, SF9BW125, 4/5CR
- -119 -9.25 868.3MHz, SF9BW125, 4/5CR
2026-05-08 11:11:47 15.6875°C 86% 9 μg/m³ 9 μg/m³ 3.41V v255 52.0664 / 5.13089 394 ttn.v3 0.111km -84 11.8 867.7MHz, SF9BW125, 4/5CR
- -119 -5.75 867.7MHz, SF9BW125, 4/5CR
2026-05-08 10:55:19 14.75°C 87.8125% 16 μg/m³ 16 μg/m³ 3.41V v255 52.0664 / 5.13089 393 ttn.v3 0.111km -89 12.2 868.1MHz, SF9BW125, 4/5CR
- -117 -3.75 868.1MHz, SF9BW125, 4/5CR
2026-05-08 10:38:50 14.1875°C 93.75% 9 μg/m³ 9 μg/m³ 3.41V v255 52.0664 / 5.13089 392 ttn.v3 0.111km -89 8.8 867.5MHz, SF9BW125, 4/5CR
2026-05-08 10:22:21 13.6875°C 93.9375% 13 μg/m³ 13 μg/m³ 3.41V v255 52.0664 / 5.13089 391 ttn.v3 0.111km -89 9 868.5MHz, SF9BW125, 4/5CR
0.881km -106 -10.8 868.5MHz, SF9BW125, 4/5CR
2026-05-08 10:05:52 13°C 98.6875% 11 μg/m³ 11 μg/m³ 3.41V v255 52.0664 / 5.13089 390 ttn.v3 0.111km -84 12.2 867.3MHz, SF9BW125, 4/5CR
2026-05-08 09:49:23 12.3125°C 98.8125% 12 μg/m³ 12 μg/m³ 3.41V v255 52.0664 / 5.13089 389 ttn.v3 0.111km -89 11.2 868.3MHz, SF9BW125, 4/5CR
- -119 -7.5 868.3MHz, SF9BW125, 4/5CR
2026-05-08 09:32:54 11.875°C 104.625% 20 μg/m³ 21 μg/m³ 3.41V v255 52.0664 / 5.13089 388 ttn.v3 0.111km -89 13 867.1MHz, SF9BW125, 4/5CR
- -123 -5.75 867.1MHz, SF9BW125, 4/5CR
- -124 -7.5 867.1MHz, SF9BW125, 4/5CR
2026-05-08 09:16:25 11.4375°C 106.5% 14 μg/m³ 17 μg/m³ 3.41V v255 52.0664 / 5.13089 387 ttn.v3 0.111km -87 11.5 868.1MHz, SF9BW125, 4/5CR
- -119 -3.75 868.1MHz, SF9BW125, 4/5CR
2026-05-08 08:59:55 10.875°C 108.75% 18 μg/m³ 19 μg/m³ 3.41V v255 52.0664 / 5.13089 386 ttn.v3 0.111km -89 9 868.5MHz, SF9BW125, 4/5CR
0.881km -105 -9.2 868.5MHz, SF9BW125, 4/5CR
2026-05-08 08:43:26 10.6875°C 109.75% 16 μg/m³ 16 μg/m³ 3.41V v255 52.0664 / 5.13089 385 ttn.v3 0.111km -87 12.8 868.3MHz, SF9BW125, 4/5CR
- -118 -8.5 868.3MHz, SF9BW125, 4/5CR
2026-05-08 08:27:51 10.3125°C 111% 18 μg/m³ 18 μg/m³ 3.42V v255 52.0664 / 5.13089 384 ttn.v3 0.111km -84 7.8 867.9MHz, SF12BW125, 4/5CR
- -119 -4.25 867.9MHz, SF12BW125, 4/5CR
- -124 -11 867.9MHz, SF12BW125, 4/5CR
- -113 -15.25 867.9MHz, SF12BW125, 4/5CR
- -117 -17.25 867.9MHz, SF12BW125, 4/5CR
2.655km -125 -20 867.9MHz, SF12BW125, 4/5CR
2026-05-08 08:10:33 10.125°C 112.625% 17 μg/m³ 18 μg/m³ 3.39V v255 52.0664 / 5.13092 383 ttn.v3 0.113km -85 12 868.1MHz, SF9BW125, 4/5CR
- -118 -4 868.1MHz, SF9BW125, 4/5CR
0.883km -107 -11 868.1MHz, SF9BW125, 4/5CR
2026-05-08 07:54:03 9.9375°C 113.438% 16 μg/m³ 17 μg/m³ 3.39V v255 52.0664 / 5.13092 382 ttn.v3 0.113km -87 13 867.7MHz, SF9BW125, 4/5CR
- -120 -5 867.7MHz, SF9BW125, 4/5CR
2026-05-08 07:37:34 9.8125°C 114.5% 18 μg/m³ 19 μg/m³ 3.39V v255 52.0664 / 5.13092 381 ttn.v3 0.113km -89 9 868.5MHz, SF9BW125, 4/5CR
- -123 -9.5 868.5MHz, SF9BW125, 4/5CR
0.883km -106 -10.5 868.5MHz, SF9BW125, 4/5CR
2026-05-08 07:21:04 9.625°C 114.875% 20 μg/m³ 22 μg/m³ 3.39V v255 52.0664 / 5.13092 380 ttn.v3 0.113km -85 9 867.5MHz, SF9BW125, 4/5CR
2026-05-08 07:04:35 9.5625°C 114.688% 22 μg/m³ 22 μg/m³ 3.41V v255 52.0664 / 5.13092 379 ttn.v3 0.113km -89 12 868.3MHz, SF9BW125, 4/5CR
0.883km -105 -12.2 868.3MHz, SF9BW125, 4/5CR
2026-05-08 06:48:06 9.5°C 115.938% 20 μg/m³ 21 μg/m³ 3.41V v255 52.0664 / 5.13092 378 ttn.v3 0.113km -85 12 867.3MHz, SF9BW125, 4/5CR
- -122 -11 867.3MHz, SF9BW125, 4/5CR
- -124 -11.5 867.3MHz, SF9BW125, 4/5CR
2026-05-08 06:31:36 9.5°C 113.688% 16 μg/m³ 16 μg/m³ 3.39V v255 52.0664 / 5.13092 377 ttn.v3 0.113km -89 12.5 868.1MHz, SF9BW125, 4/5CR
- -118 -2.5 868.1MHz, SF9BW125, 4/5CR
0.883km -105 -12.8 868.1MHz, SF9BW125, 4/5CR
2026-05-08 06:15:07 9.5°C 114.312% 15 μg/m³ 15 μg/m³ 3.39V v255 52.0664 / 5.13092 376 ttn.v3 0.113km -89 13 867.1MHz, SF9BW125, 4/5CR
- -119 -2.25 867.1MHz, SF9BW125, 4/5CR
2026-05-08 05:58:37 9.625°C 113.312% 18 μg/m³ 19 μg/m³ 3.39V v255 52.0664 / 5.13092 375 ttn.v3 0.113km -91 8.8 868.5MHz, SF9BW125, 4/5CR
0.883km -103 -11 868.5MHz, SF9BW125, 4/5CR
2026-05-08 05:42:08 9.6875°C 114.062% 15 μg/m³ 15 μg/m³ 3.39V v255 52.0664 / 5.13092 374 ttn.v3 0.113km -87 12 867.9MHz, SF9BW125, 4/5CR
- -119 -8.25 867.9MHz, SF9BW125, 4/5CR
2026-05-08 05:25:38 9.75°C 112.812% 17 μg/m³ 17 μg/m³ 3.39V v255 52.0664 / 5.13092 373 ttn.v3 0.113km -87 10.5 868.3MHz, SF9BW125, 4/5CR
- -119 -5.5 868.3MHz, SF9BW125, 4/5CR
0.883km -107 -11.8 868.3MHz, SF9BW125, 4/5CR
2026-05-08 05:09:09 9.875°C 112.188% 15 μg/m³ 16 μg/m³ 3.39V v255 52.0664 / 5.13092 372 ttn.v3 0.113km -87 12.2 867.7MHz, SF9BW125, 4/5CR
- -121 -4.75 867.7MHz, SF9BW125, 4/5CR
3.539km -109 -12.25 867.7MHz, SF9BW125, 4/5CR
2026-05-08 04:52:40 9.9375°C 111.25% 14 μg/m³ 14 μg/m³ 3.39V v255 52.0664 / 5.13092 371 ttn.v3 0.113km -89 11 868.1MHz, SF9BW125, 4/5CR
- -119 -2.75 868.1MHz, SF9BW125, 4/5CR
0.883km -106 -12 868.1MHz, SF9BW125, 4/5CR
2026-05-08 04:36:10 10.0625°C 110.188% 16 μg/m³ 17 μg/m³ 3.39V v255 52.0664 / 5.13092 370 ttn.v3 0.113km -81 9.5 867.5MHz, SF9BW125, 4/5CR
2026-05-08 04:19:41 10.125°C 110.562% 17 μg/m³ 17 μg/m³ 3.39V v255 52.0664 / 5.13092 369 ttn.v3 0.113km -89 9 868.5MHz, SF9BW125, 4/5CR
0.883km -105 -11 868.5MHz, SF9BW125, 4/5CR
2026-05-08 04:03:12 10.1875°C 109.188% 15 μg/m³ 15 μg/m³ 3.39V v255 52.0664 / 5.13092 368 ttn.v3 0.113km -87 12.8 867.3MHz, SF9BW125, 4/5CR
- -129 -13 867.3MHz, SF9BW125, 4/5CR
2026-05-08 03:46:43 10.3125°C 109.812% 11 μg/m³ 11 μg/m³ 3.41V v255 52.0664 / 5.13092 367 ttn.v3 0.113km -91 11.5 868.3MHz, SF9BW125, 4/5CR
- -118 -8.5 868.3MHz, SF9BW125, 4/5CR
0.883km -103 -10 868.3MHz, SF9BW125, 4/5CR
2026-05-08 03:30:13 10.4375°C 108.188% 15 μg/m³ 15 μg/m³ 3.39V v255 52.0664 / 5.13092 366 ttn.v3 0.113km -87 12 867.1MHz, SF9BW125, 4/5CR
- -119 -2.25 867.1MHz, SF9BW125, 4/5CR
2026-05-08 03:13:44 10.4375°C 107.938% 11 μg/m³ 14 μg/m³ 3.39V v255 52.0664 / 5.13092 365 ttn.v3 0.113km -91 11.8 868.1MHz, SF9BW125, 4/5CR
- -117 -1.25 868.1MHz, SF9BW125, 4/5CR
2026-05-08 02:57:15 10.625°C 107.188% 11 μg/m³ 11 μg/m³ 3.39V v255 52.0664 / 5.13092 364 ttn.v3 0.113km -84 11.2 867.9MHz, SF9BW125, 4/5CR
3.539km -107 -10.25 867.9MHz, SF9BW125, 4/5CR
2026-05-08 02:40:45 10.75°C 108.375% 12 μg/m³ 12 μg/m³ 3.41V v255 52.0664 / 5.13092 363 ttn.v3 0.113km -89 9 868.5MHz, SF9BW125, 4/5CR
0.883km -105 -9.2 868.5MHz, SF9BW125, 4/5CR
- -125 -10.5 868.5MHz, SF9BW125, 4/5CR
2026-05-08 02:24:16 10.8125°C 106.312% 8 μg/m³ 8 μg/m³ 3.41V v255 52.0664 / 5.13092 362 ttn.v3 0.113km -84 11.5 867.7MHz, SF9BW125, 4/5CR
2026-05-08 02:07:47 10.875°C 107.812% 15 μg/m³ 15 μg/m³ 3.41V v255 52.0664 / 5.13092 361 ttn.v3 0.113km -87 11 868.3MHz, SF9BW125, 4/5CR
- -119 -8.25 868.3MHz, SF9BW125, 4/5CR
2026-05-08 01:51:18 11°C 106.312% 11 μg/m³ 11 μg/m³ 3.41V v255 52.0664 / 5.13092 360 ttn.v3 0.113km -87 9 867.5MHz, SF9BW125, 4/5CR
2026-05-08 01:34:49 11°C 105.125% 9 μg/m³ 10 μg/m³ 3.41V v255 52.0664 / 5.13092 359 ttn.v3 0.113km -87 12.5 868.1MHz, SF9BW125, 4/5CR
2026-05-08 01:18:19 11.1875°C 102.688% 11 μg/m³ 12 μg/m³ 3.39V v255 52.0664 / 5.13092 358 ttn.v3 0.113km -87 13 867.3MHz, SF9BW125, 4/5CR
- -126 -10.5 867.3MHz, SF9BW125, 4/5CR
2026-05-08 01:01:50 11.25°C 102.188% 14 μg/m³ 14 μg/m³ 3.41V v255 52.0664 / 5.13092 357 ttn.v3 0.113km -89 8.8 868.5MHz, SF9BW125, 4/5CR
0.883km -105 -11.2 868.5MHz, SF9BW125, 4/5CR
- -128 -12 868.5MHz, SF9BW125, 4/5CR
2026-05-08 00:45:21 11.3125°C 101.125% 10 μg/m³ 10 μg/m³ 3.41V v255 52.0664 / 5.13092 356 ttn.v3 0.113km -85 12.2 867.1MHz, SF9BW125, 4/5CR
2026-05-08 00:28:52 11.25°C 101.75% 9 μg/m³ 9 μg/m³ 3.41V v255 52.0664 / 5.13092 355 ttn.v3 0.113km -89 11.8 868.3MHz, SF9BW125, 4/5CR
- -118 -5.75 868.3MHz, SF9BW125, 4/5CR
2026-05-08 00:12:23 11.4375°C 100.062% 7 μg/m³ 7 μg/m³ 3.41V v255 52.0664 / 5.13092 354 ttn.v3 0.113km -89 12.5 867.9MHz, SF9BW125, 4/5CR
- -120 -3.75 867.9MHz, SF9BW125, 4/5CR
2026-05-07 23:55:54 11.6875°C 96.9375% 7 μg/m³ 8 μg/m³ 3.41V v255 52.0664 / 5.13092 353 ttn.v3 0.113km -87 11.8 868.1MHz, SF9BW125, 4/5CR
- -119 -3.75 868.1MHz, SF9BW125, 4/5CR
3.539km -108 -6.25 868.1MHz, SF9BW125, 4/5CR
2026-05-07 23:39:25 11.9375°C 93% 3 μg/m³ 4 μg/m³ 3.41V v255 52.0664 / 5.13092 352 ttn.v3 0.113km -89 11 867.7MHz, SF9BW125, 4/5CR
3.539km -109 -9.5 867.7MHz, SF9BW125, 4/5CR
2026-05-07 23:22:56 12.4375°C 88.8125% 6 μg/m³ 7 μg/m³ 3.41V v255 52.0664 / 5.13092 351 ttn.v3 0.113km -84 9.5 868.5MHz, SF9BW125, 4/5CR
- -126 -11.75 868.5MHz, SF9BW125, 4/5CR
2026-05-07 23:06:27 12.625°C 87.125% 3 μg/m³ 3 μg/m³ 3.41V v255 52.0664 / 5.13092 350 ttn.v3 0.113km -84 9 867.5MHz, SF9BW125, 4/5CR
2026-05-07 22:49:58 13.0625°C 84.0625% 2 μg/m³ 3 μg/m³ 3.41V v255 52.0664 / 5.13092 349 ttn.v3 0.113km -85 11.5 868.3MHz, SF9BW125, 4/5CR
- -120 -6.5 868.3MHz, SF9BW125, 4/5CR
0.883km -103 -11.8 868.3MHz, SF9BW125, 4/5CR
2026-05-07 22:33:29 13.1875°C 82.625% 2 μg/m³ 2 μg/m³ 3.41V v255 52.0664 / 5.13092 348 ttn.v3 0.113km -85 11.8 867.3MHz, SF9BW125, 4/5CR
- -124 -8 867.3MHz, SF9BW125, 4/5CR
2026-05-07 22:17:00 13.4375°C 83.5% 1 μg/m³ 2 μg/m³ 3.41V v255 52.0664 / 5.13092 347 ttn.v3 0.113km -87 12 868.1MHz, SF9BW125, 4/5CR
- -121 -5.25 868.1MHz, SF9BW125, 4/5CR
0.883km -107 -12.8 868.1MHz, SF9BW125, 4/5CR
2026-05-07 22:00:31 13.5°C 80.875% 6 μg/m³ 10 μg/m³ 3.41V v255 52.0664 / 5.13092 346 ttn.v3 0.113km -83 10.8 867.1MHz, SF9BW125, 4/5CR
- -120 -3.5 867.1MHz, SF9BW125, 4/5CR
2026-05-07 21:44:02 13.5°C 78.6875% 3 μg/m³ 4 μg/m³ 3.41V v255 52.0664 / 5.13092 345 ttn.v3 0.113km -89 8.2 868.5MHz, SF9BW125, 4/5CR
0.883km -105 -10.2 868.5MHz, SF9BW125, 4/5CR
2026-05-07 21:27:33 13.4375°C 82.875% 3 μg/m³ 3 μg/m³ 3.41V v255 52.0664 / 5.13092 344 ttn.v3 0.113km -87 13 867.9MHz, SF9BW125, 4/5CR
2026-05-07 21:11:04 13.625°C 84.1875% 2 μg/m³ 3 μg/m³ 3.41V v255 52.0664 / 5.13092 343 ttn.v3 0.113km -89 12.2 868.3MHz, SF9BW125, 4/5CR
2026-05-07 20:54:35 13.875°C 81% 7 μg/m³ 12 μg/m³ 3.41V v255 52.0664 / 5.13092 342 ttn.v3 0.113km -84 12.2 867.7MHz, SF9BW125, 4/5CR
- -121 -5.25 867.7MHz, SF9BW125, 4/5CR
3.539km -109 -7 867.7MHz, SF9BW125, 4/5CR
2026-05-07 20:38:07 14°C 78.0625% 2 μg/m³ 2 μg/m³ 3.41V v255 52.0664 / 5.13092 341 ttn.v3 0.113km -89 13 868.1MHz, SF9BW125, 4/5CR
- -119 -4.25 868.1MHz, SF9BW125, 4/5CR
3.539km -110 -5.25 868.1MHz, SF9BW125, 4/5CR
0.883km -107 -10.5 868.1MHz, SF9BW125, 4/5CR
2026-05-07 20:21:38 14.3125°C 77.875% 1 μg/m³ 1 μg/m³ 3.41V v255 52.0664 / 5.13092 340 ttn.v3 0.113km -83 8.8 867.5MHz, SF9BW125, 4/5CR
2026-05-07 20:05:09 14.5°C 72.5% 4 μg/m³ 5 μg/m³ 3.41V v255 52.0664 / 5.13092 339 ttn.v3 0.113km -87 8.8 868.5MHz, SF9BW125, 4/5CR
0.883km -104 -10.5 868.5MHz, SF9BW125, 4/5CR
2026-05-07 19:48:40 14.5625°C 71.8125% 3 μg/m³ 4 μg/m³ 3.41V v255 52.0664 / 5.13092 338 ttn.v3 0.113km -89 12.8 867.3MHz, SF9BW125, 4/5CR
2026-05-07 19:32:11 14.625°C 73.125% 4 μg/m³ 6 μg/m³ 3.41V v255 52.0664 / 5.13092 337 ttn.v3 0.113km -84 11.8 868.3MHz, SF9BW125, 4/5CR
0.883km -107 -11.8 868.3MHz, SF9BW125, 4/5CR
2026-05-07 19:15:42 14.625°C 73.125% 2 μg/m³ 3 μg/m³ 3.41V v255 52.0664 / 5.13092 336 ttn.v3 0.113km -87 12.5 867.1MHz, SF9BW125, 4/5CR
- -118 -1.5 867.1MHz, SF9BW125, 4/5CR
2026-05-07 18:59:14 14.8125°C 71.625% 1 μg/m³ 1 μg/m³ 3.41V v255 52.0664 / 5.13092 335 ttn.v3 0.113km -89 12.5 868.1MHz, SF9BW125, 4/5CR
- -120 -3.75 868.1MHz, SF9BW125, 4/5CR
2026-05-07 18:42:45 14.75°C 74.625% 2 μg/m³ 3 μg/m³ 3.41V v255 52.0664 / 5.13092 334 ttn.v3 0.113km -87 12.8 867.9MHz, SF9BW125, 4/5CR
- -125 -8.75 867.9MHz, SF9BW125, 4/5CR
2026-05-07 18:26:16 15.125°C 69.25% 2 μg/m³ 2 μg/m³ 3.41V v255 52.0664 / 5.13092 333 ttn.v3 0.113km -87 8.5 868.5MHz, SF9BW125, 4/5CR
- -124 -10 868.5MHz, SF9BW125, 4/5CR
2026-05-07 18:09:47 15.1875°C 68.5625% 2 μg/m³ 2 μg/m³ 3.41V v255 52.0664 / 5.13092 332 ttn.v3 0.113km -84 11.8 867.7MHz, SF9BW125, 4/5CR
- -121 -5.5 867.7MHz, SF9BW125, 4/5CR
2026-05-07 17:53:18 15.5°C 66.5% 2 μg/m³ 3 μg/m³ 3.41V v255 52.0664 / 5.13092 331 ttn.v3 0.113km -87 12.8 868.3MHz, SF9BW125, 4/5CR
- -119 -8.75 868.3MHz, SF9BW125, 4/5CR
2026-05-07 17:36:50 15.9375°C 67.8125% 1 μg/m³ 1 μg/m³ 3.41V v255 52.0664 / 5.13092 330 ttn.v3 0.113km -82 9.5 867.5MHz, SF9BW125, 4/5CR
2026-05-07 17:20:21 16.375°C 61.5% 3 μg/m³ 4 μg/m³ 3.41V v255 52.0664 / 5.13092 329 ttn.v3 0.113km -84 11.5 868.1MHz, SF9BW125, 4/5CR
- -119 -4.25 868.1MHz, SF9BW125, 4/5CR
3.539km -104 -9.5 868.1MHz, SF9BW125, 4/5CR
0.883km -105 -12 868.1MHz, SF9BW125, 4/5CR
2026-05-07 17:03:52 16.5°C 62.25% 2 μg/m³ 2 μg/m³ 3.41V v255 52.0664 / 5.13092 328 ttn.v3 0.113km -87 12.5 867.3MHz, SF9BW125, 4/5CR
2026-05-07 16:47:24 16.4375°C 63.5625% 1 μg/m³ 1 μg/m³ 3.41V v255 52.0664 / 5.13092 327 ttn.v3 0.113km -84 9.2 868.5MHz, SF9BW125, 4/5CR
0.883km -105 -10.5 868.5MHz, SF9BW125, 4/5CR
2026-05-07 16:30:55 16.25°C 63.625% 3 μg/m³ 3 μg/m³ 3.41V v255 52.0664 / 5.13092 326 ttn.v3 0.113km -84 11.2 867.1MHz, SF9BW125, 4/5CR
- -122 -6.25 867.1MHz, SF9BW125, 4/5CR
2026-05-07 16:14:26 16.1875°C 64.375% 3 μg/m³ 3 μg/m³ 3.41V v255 52.0664 / 5.13092 325 ttn.v3 0.113km -87 12 868.3MHz, SF9BW125, 4/5CR
0.883km -105 -10.2 868.3MHz, SF9BW125, 4/5CR
- -122 -11.25 868.3MHz, SF9BW125, 4/5CR
2026-05-07 15:57:57 15.5°C 64.4375% 2 μg/m³ 3 μg/m³ 3.41V v255 52.0664 / 5.13092 324 ttn.v3 0.113km -84 12.2 867.9MHz, SF9BW125, 4/5CR
- -120 -3.75 867.9MHz, SF9BW125, 4/5CR
3.539km -109 -6.5 867.9MHz, SF9BW125, 4/5CR
- -122 -7.5 867.9MHz, SF9BW125, 4/5CR
0.883km -106 -12.5 867.9MHz, SF9BW125, 4/5CR
2026-05-07 15:41:29 15.8125°C 62.75% 2 μg/m³ 2 μg/m³ 3.41V v255 52.0664 / 5.13092 323 ttn.v3 0.113km -89 12.5 868.1MHz, SF9BW125, 4/5CR
- -126 -9.5 868.1MHz, SF9BW125, 4/5CR
0.883km -107 -10 868.1MHz, SF9BW125, 4/5CR
3.539km -104 -10.25 868.1MHz, SF9BW125, 4/5CR
2026-05-07 15:25:00 15.6875°C 65.25% 2 μg/m³ 3 μg/m³ 3.41V v255 52.0664 / 5.13092 322 ttn.v3 0.113km -87 11.8 867.7MHz, SF9BW125, 4/5CR
- -121 -4.5 867.7MHz, SF9BW125, 4/5CR
3.539km -106 -7.75 867.7MHz, SF9BW125, 4/5CR
0.883km -105 -13.5 867.7MHz, SF9BW125, 4/5CR
2026-05-07 15:08:31 15.8125°C 66.5625% 3 μg/m³ 4 μg/m³ 3.41V v255 52.0664 / 5.13092 321 ttn.v3 0.113km -89 9 868.5MHz, SF9BW125, 4/5CR
- -119 -4.5 868.5MHz, SF9BW125, 4/5CR
2026-05-07 14:52:02 15.8125°C 63.4375% 1 μg/m³ 2 μg/m³ 3.41V v255 52.0664 / 5.13092 320 ttn.v3 0.113km -83 9.5 867.5MHz, SF9BW125, 4/5CR
2026-05-07 14:35:34 15.8125°C 62.1875% 3 μg/m³ 4 μg/m³ 3.41V v255 52.0664 / 5.13092 319 ttn.v3 0.113km -85 10.5 868.3MHz, SF9BW125, 4/5CR
- -125 -11.75 868.3MHz, SF9BW125, 4/5CR
0.883km -104 -12.2 868.3MHz, SF9BW125, 4/5CR
2026-05-07 14:19:05 16.5625°C 60.8125% 3 μg/m³ 5 μg/m³ 3.41V v255 52.0664 / 5.13092 318 ttn.v3 0.113km -87 12.5 867.3MHz, SF9BW125, 4/5CR
- -128 -12.25 867.3MHz, SF9BW125, 4/5CR
2026-05-07 14:02:36 16.0625°C 60.3125% 2 μg/m³ 2 μg/m³ 3.41V v255 52.0664 / 5.13092 317 ttn.v3 0.113km -89 12 868.1MHz, SF9BW125, 4/5CR
- -118 -3.75 868.1MHz, SF9BW125, 4/5CR
3.539km -103 -8.75 868.1MHz, SF9BW125, 4/5CR
0.883km -109 -10 868.1MHz, SF9BW125, 4/5CR
2026-05-07 13:46:07 15.6875°C 64.5625% 1 μg/m³ 1 μg/m³ 3.41V v255 52.0664 / 5.13092 316 ttn.v3 0.113km -89 12.5 867.1MHz, SF9BW125, 4/5CR
2026-05-07 13:29:39 15.4375°C 65.25% 4 μg/m³ 4 μg/m³ 3.41V v255 52.0664 / 5.13092 315 ttn.v3 0.113km -86 9.2 868.5MHz, SF9BW125, 4/5CR
3.539km -95 -12 868.5MHz, SF9BW125, 4/5CR
- -127 -12.25 868.5MHz, SF9BW125, 4/5CR
2026-05-07 13:13:10 15.1875°C 69.9375% 3 μg/m³ 4 μg/m³ 3.41V v255 52.0664 / 5.13092 314 ttn.v3 0.113km -85 11.5 867.9MHz, SF9BW125, 4/5CR
- -124 -7.75 867.9MHz, SF9BW125, 4/5CR
2026-05-07 12:56:41 14.625°C 77.75% 10 μg/m³ 17 μg/m³ 3.41V v255 52.0664 / 5.13092 313 ttn.v3 0.113km -85 11.2 868.3MHz, SF9BW125, 4/5CR
2026-05-07 12:40:12 14.375°C 72.25% 2 μg/m³ 2 μg/m³ 3.41V v255 52.0664 / 5.13092 312 ttn.v3 0.113km -87 12.2 867.7MHz, SF9BW125, 4/5CR
- -120 -5.25 867.7MHz, SF9BW125, 4/5CR
0.883km -105 -10.5 867.7MHz, SF9BW125, 4/5CR
2026-05-07 12:23:43 14.5°C 71.5% 3 μg/m³ 3 μg/m³ 3.41V v255 52.0664 / 5.13092 311 ttn.v3 0.113km -90 11.2 868.1MHz, SF9BW125, 4/5CR
- -120 -4 868.1MHz, SF9BW125, 4/5CR
0.883km -107 -12 868.1MHz, SF9BW125, 4/5CR
2026-05-07 12:07:15 14.625°C 71.4375% 4 μg/m³ 6 μg/m³ 3.41V v255 52.0664 / 5.13092 310 ttn.v3 0.113km -85 8.8 867.5MHz, SF9BW125, 4/5CR
- -125 -13 867.5MHz, SF9BW125, 4/5CR
2026-05-07 11:50:46 15.1875°C 70.3125% 2 μg/m³ 2 μg/m³ 3.41V v255 52.0664 / 5.13092 309 ttn.v3 0.113km -91 8.5 868.5MHz, SF9BW125, 4/5CR
0.883km -106 -13.2 868.5MHz, SF9BW125, 4/5CR
2026-05-07 11:34:17 14.8125°C 72% 2 μg/m³ 3 μg/m³ 3.41V v255 52.0664 / 5.13092 308 ttn.v3 0.113km -89 12 867.3MHz, SF9BW125, 4/5CR
- -122 -5.75 867.3MHz, SF9BW125, 4/5CR
2026-05-07 11:17:48 14.3125°C 73.875% 2 μg/m³ 2 μg/m³ 3.41V v255 52.0664 / 5.13092 307 ttn.v3 0.113km -84 11 868.3MHz, SF9BW125, 4/5CR
2026-05-07 11:01:19 13.625°C 76.1875% 4 μg/m³ 4 μg/m³ 3.41V v255 52.0664 / 5.13092 306 ttn.v3 0.113km -95 12 867.1MHz, SF9BW125, 4/5CR
- -126 -11.25 867.1MHz, SF9BW125, 4/5CR
2026-05-07 10:44:50 13.1875°C 77.125% 3 μg/m³ 5 μg/m³ 3.41V v255 52.0664 / 5.13092 305 ttn.v3 0.113km -87 12 868.1MHz, SF9BW125, 4/5CR
- -121 -5.25 868.1MHz, SF9BW125, 4/5CR
0.883km -107 -10 868.1MHz, SF9BW125, 4/5CR
2026-05-07 10:28:21 12.5625°C 79.375% 2 μg/m³ 4 μg/m³ 3.41V v255 52.0664 / 5.13092 304 ttn.v3 0.113km -87 11.8 867.9MHz, SF9BW125, 4/5CR
2026-05-07 10:11:52 11.875°C 84.3125% 2 μg/m³ 3 μg/m³ 3.41V v255 52.0664 / 5.13092 303 ttn.v3 0.113km -87 8.5 868.5MHz, SF9BW125, 4/5CR
0.883km -106 -13 868.5MHz, SF9BW125, 4/5CR
2026-05-07 09:55:23 11°C 89.25% 3 μg/m³ 4 μg/m³ 3.39V v255 52.0664 / 5.13092 302 ttn.v3 0.113km -89 12.2 867.7MHz, SF9BW125, 4/5CR
- -122 -6.5 867.7MHz, SF9BW125, 4/5CR
0.883km -107 -13 867.7MHz, SF9BW125, 4/5CR
2026-05-07 09:38:54 10.6875°C 90.875% 2 μg/m³ 3 μg/m³ 3.41V v255 52.0664 / 5.13092 301 ttn.v3 0.113km -91 11.2 868.3MHz, SF9BW125, 4/5CR
0.883km -105 -8.8 868.3MHz, SF9BW125, 4/5CR
2026-05-07 09:22:24 10.125°C 96.5625% 2 μg/m³ 4 μg/m³ 3.41V v255 52.0664 / 5.13092 300 ttn.v3 0.113km -87 8.2 867.5MHz, SF9BW125, 4/5CR
2026-05-07 09:05:55 9.8125°C 96.6875% 4 μg/m³ 6 μg/m³ 3.41V v255 52.0664 / 5.13092 299 ttn.v3 0.113km -89 12 868.1MHz, SF9BW125, 4/5CR
- -119 -6.5 868.1MHz, SF9BW125, 4/5CR
0.883km -106 -8 868.1MHz, SF9BW125, 4/5CR
2026-05-07 08:49:26 9.5625°C 98.75% 2 μg/m³ 2 μg/m³ 3.39V v255 52.0664 / 5.13092 298 ttn.v3 0.113km -87 12.5 867.3MHz, SF9BW125, 4/5CR
- -125 -8.75 867.3MHz, SF9BW125, 4/5CR
0.883km -105 -12 867.3MHz, SF9BW125, 4/5CR
2026-05-07 08:32:56 9.1875°C 101.875% 2 μg/m³ 2 μg/m³ 3.39V v255 52.0664 / 5.13092 297 ttn.v3 0.113km -91 8.2 868.5MHz, SF9BW125, 4/5CR
- -127 -13 868.5MHz, SF9BW125, 4/5CR
2026-05-07 08:16:27 9.0625°C 106.25% 3 μg/m³ 4 μg/m³ 3.39V v255 52.0664 / 5.13092 296 ttn.v3 0.113km -87 11.2 867.1MHz, SF9BW125, 4/5CR
- -120 -3.25 867.1MHz, SF9BW125, 4/5CR
3.539km -111 -8.5 867.1MHz, SF9BW125, 4/5CR
2026-05-07 07:59:57 8.5625°C 111.375% 1 μg/m³ 2 μg/m³ 3.39V v255 52.0664 / 5.13092 295 ttn.v3 0.113km -91 10.2 868.3MHz, SF9BW125, 4/5CR
2026-05-07 07:43:28 8.25°C 113% 10 μg/m³ 18 μg/m³ 3.39V v255 52.0664 / 5.13092 294 ttn.v3 0.113km -89 12.5 867.9MHz, SF9BW125, 4/5CR
- -119 -2.75 867.9MHz, SF9BW125, 4/5CR
3.539km -108 -3.75 867.9MHz, SF9BW125, 4/5CR
- -122 -7.75 867.9MHz, SF9BW125, 4/5CR
2026-05-07 07:26:58 7.9375°C 114.188% 4 μg/m³ 5 μg/m³ 3.39V v255 52.0664 / 5.13092 293 ttn.v3 0.113km -87 11.8 868.1MHz, SF9BW125, 4/5CR
- -117 -4 868.1MHz, SF9BW125, 4/5CR
0.883km -101 -9.5 868.1MHz, SF9BW125, 4/5CR
2026-05-07 07:10:28 7.9375°C 113.75% 1 μg/m³ 2 μg/m³ 3.39V v255 52.0664 / 5.13092 292 ttn.v3 0.113km -87 12.2 867.7MHz, SF9BW125, 4/5CR
3.539km -104 -7.5 867.7MHz, SF9BW125, 4/5CR
- -122 -8.5 867.7MHz, SF9BW125, 4/5CR
2026-05-07 06:53:59 7.875°C 114.125% 5 μg/m³ 8 μg/m³ 3.39V v255 52.0664 / 5.13092 291 ttn.v3 0.113km -89 8.8 868.5MHz, SF9BW125, 4/5CR
- -122 -6 868.5MHz, SF9BW125, 4/5CR
0.883km -105 -11.5 868.5MHz, SF9BW125, 4/5CR
2026-05-07 06:37:29 7.6875°C 114.625% 2 μg/m³ 2 μg/m³ 3.39V v255 52.0664 / 5.13092 290 ttn.v3 0.113km -89 12 868.3MHz, SF9BW125, 4/5CR
0.883km -103 -10 868.3MHz, SF9BW125, 4/5CR
- -116 -10 868.3MHz, SF9BW125, 4/5CR
2026-05-07 06:20:59 7.625°C 115.188% 2 μg/m³ 2 μg/m³ 3.39V v255 52.0664 / 5.13092 289 ttn.v3 0.113km -89 12.2 868.1MHz, SF9BW125, 4/5CR
- -116 -0.25 868.1MHz, SF9BW125, 4/5CR
0.883km -107 -11.5 868.1MHz, SF9BW125, 4/5CR
2026-05-07 06:06:23 7.4375°C 115% 5 μg/m³ 10 μg/m³ 3.42V v255 52.0664 / 5.13092 288 ttn.v3 0.113km -83 8.5 867.5MHz, SF12BW125, 4/5CR
0.883km -104 -14 867.5MHz, SF12BW125, 4/5CR
- -115 -17.25 867.5MHz, SF12BW125, 4/5CR
0.657km -107 -18.75 867.5MHz, SF12BW125, 4/5CR
- -105 -20.5 867.5MHz, SF12BW125, 4/5CR
2026-05-07 05:48:10 7.3125°C 113.688% 3 μg/m³ 3 μg/m³ 3.39V v255 52.0664 / 5.13083 287 ttn.v3 0.109km -89 8.8 868.5MHz, SF9BW125, 4/5CR
- -122 -8 868.5MHz, SF9BW125, 4/5CR
0.877km -106 -11.5 868.5MHz, SF9BW125, 4/5CR
2026-05-07 05:31:41 7.375°C 112.875% 1 μg/m³ 1 μg/m³ 3.39V v255 52.0664 / 5.13083 286 ttn.v3 0.109km -83 11.2 867.3MHz, SF9BW125, 4/5CR
2026-05-07 05:15:11 7.4375°C 111.75% 3 μg/m³ 5 μg/m³ 3.39V v255 52.0664 / 5.13083 285 ttn.v3 0.109km -89 11.8 868.3MHz, SF9BW125, 4/5CR
- -117 -6.25 868.3MHz, SF9BW125, 4/5CR
2026-05-07 04:58:41 7.375°C 110.688% 4 μg/m³ 5 μg/m³ 3.39V v255 52.0664 / 5.13083 284 ttn.v3 0.109km -89 12.8 867.1MHz, SF9BW125, 4/5CR
- -122 -5.5 867.1MHz, SF9BW125, 4/5CR
2026-05-07 04:42:12 7.4375°C 109.312% 1 μg/m³ 1 μg/m³ 3.39V v255 52.0664 / 5.13083 283 ttn.v3 0.109km -87 12 868.1MHz, SF9BW125, 4/5CR
- -118 -2.5 868.1MHz, SF9BW125, 4/5CR
0.877km -106 -10.8 868.1MHz, SF9BW125, 4/5CR
2026-05-07 04:25:42 7.75°C 106.562% 2 μg/m³ 4 μg/m³ 3.39V v255 52.0664 / 5.13083 282 ttn.v3 0.109km -89 12.2 867.9MHz, SF9BW125, 4/5CR
- -118 -4.75 867.9MHz, SF9BW125, 4/5CR
2026-05-07 04:09:12 8.125°C 103.812% 2 μg/m³ 2 μg/m³ 3.39V v255 52.0664 / 5.13083 281 ttn.v3 0.109km -87 8.8 868.5MHz, SF9BW125, 4/5CR
- -122 -8.25 868.5MHz, SF9BW125, 4/5CR
0.877km -105 -10.5 868.5MHz, SF9BW125, 4/5CR
2026-05-07 03:52:43 8.4375°C 102.312% 7 μg/m³ 10 μg/m³ 3.39V v255 52.0664 / 5.13083 280 ttn.v3 0.109km -87 13 867.7MHz, SF9BW125, 4/5CR
2026-05-07 03:36:13 8.625°C 100.625% 5 μg/m³ 9 μg/m³ 3.39V v255 52.0664 / 5.13083 279 ttn.v3 0.109km -89 11.2 868.3MHz, SF9BW125, 4/5CR
2026-05-07 03:19:44 8.75°C 99.5625% 5 μg/m³ 6 μg/m³ 3.39V v255 52.0664 / 5.13083 278 ttn.v3 0.109km -83 9.5 867.5MHz, SF9BW125, 4/5CR

Message count: 200
Node count: 1

Messages per node

Number of messages in list aboveNodes
200

Statistics per gateway

GatewayNumber of messagesNumber of nodesNodes
2001 (0.109km)
1221
791 (0.877km)
181 (3.539km)
91
21
21
11 (2.655km)
11 (0.657km)

Filter by dataset